sensor_id;sensor_type;location;lat;lon;timestamp;P1;durP1;ratioP1;P2;durP2;ratioP2
42030;SDS011;27709;52.036;5.906;2022-09-20T00:01:23;2.13;;;0.80;;
42030;SDS011;27709;52.036;5.906;2022-09-20T00:03:50;4.25;;;1.17;;
42030;SDS011;27709;52.036;5.906;2022-09-20T00:06:18;3.10;;;0.63;;
42030;SDS011;27709;52.036;5.906;2022-09-20T00:08:46;3.75;;;0.68;;
42030;SDS011;27709;52.036;5.906;2022-09-20T00:11:17;4.53;;;0.88;;
42030;SDS011;27709;52.036;5.906;2022-09-20T00:13:45;4.25;;;0.57;;
42030;SDS011;27709;52.036;5.906;2022-09-20T00:16:16;4.35;;;0.77;;
42030;SDS011;27709;52.036;5.906;2022-09-20T00:18:47;3.30;;;0.70;;
42030;SDS011;27709;52.036;5.906;2022-09-20T00:21:18;3.40;;;0.55;;
42030;SDS011;27709;52.036;5.906;2022-09-20T00:23:46;3.67;;;0.88;;
42030;SDS011;27709;52.036;5.906;2022-09-20T00:26:12;3.92;;;0.60;;
42030;SDS011;27709;52.036;5.906;2022-09-20T00:28:38;4.25;;;0.80;;
42030;SDS011;27709;52.036;5.906;2022-09-20T00:31:04;3.80;;;0.70;;
42030;SDS011;27709;52.036;5.906;2022-09-20T00:33:29;2.80;;;0.68;;
42030;SDS011;27709;52.036;5.906;2022-09-20T00:36:18;1.80;;;0.65;;
42030;SDS011;27709;52.036;5.906;2022-09-20T00:38:43;4.55;;;0.70;;
42030;SDS011;27709;52.036;5.906;2022-09-20T00:41:09;3.67;;;0.60;;
42030;SDS011;27709;52.036;5.906;2022-09-20T00:43:36;3.83;;;0.77;;
42030;SDS011;27709;52.036;5.906;2022-09-20T00:46:03;3.00;;;0.60;;
42030;SDS011;27709;52.036;5.906;2022-09-20T00:48:31;4.05;;;0.70;;
42030;SDS011;27709;52.036;5.906;2022-09-20T00:51:07;3.20;;;0.50;;
42030;SDS011;27709;52.036;5.906;2022-09-20T00:53:37;4.72;;;0.73;;
42030;SDS011;27709;52.036;5.906;2022-09-20T00:56:09;2.22;;;0.63;;
42030;SDS011;27709;52.036;5.906;2022-09-20T00:58:42;2.83;;;0.65;;
42030;SDS011;27709;52.036;5.906;2022-09-20T01:01:14;3.05;;;0.70;;
42030;SDS011;27709;52.036;5.906;2022-09-20T01:03:40;3.20;;;0.80;;
42030;SDS011;27709;52.036;5.906;2022-09-20T01:06:07;3.65;;;0.82;;
42030;SDS011;27709;52.036;5.906;2022-09-20T01:08:35;3.00;;;0.75;;
42030;SDS011;27709;52.036;5.906;2022-09-20T01:11:02;2.95;;;0.50;;
42030;SDS011;27709;52.036;5.906;2022-09-20T01:13:27;3.55;;;0.52;;
42030;SDS011;27709;52.036;5.906;2022-09-20T01:15:53;3.95;;;0.70;;
42030;SDS011;27709;52.036;5.906;2022-09-20T01:18:22;4.25;;;0.70;;
42030;SDS011;27709;52.036;5.906;2022-09-20T01:20:48;4.18;;;0.80;;
42030;SDS011;27709;52.036;5.906;2022-09-20T01:28:35;1.58;;;0.60;;
42030;SDS011;27709;52.036;5.906;2022-09-20T01:34:03;4.07;;;0.65;;
42030;SDS011;27709;52.036;5.906;2022-09-20T01:39:20;3.67;;;0.70;;
42030;SDS011;27709;52.036;5.906;2022-09-20T01:41:57;2.80;;;1.15;;
42030;SDS011;27709;52.036;5.906;2022-09-20T01:50:14;2.95;;;0.70;;
42030;SDS011;27709;52.036;5.906;2022-09-20T02:06:48;2.88;;;0.75;;
42030;SDS011;27709;52.036;5.906;2022-09-20T02:31:51;2.97;;;0.70;;
42030;SDS011;27709;52.036;5.906;2022-09-20T02:40:13;1.98;;;0.50;;
42030;SDS011;27709;52.036;5.906;2022-09-20T02:42:48;2.30;;;0.57;;
42030;SDS011;27709;52.036;5.906;2022-09-20T02:45:58;1.80;;;0.52;;
42030;SDS011;27709;52.036;5.906;2022-09-20T02:48:44;2.35;;;0.70;;
42030;SDS011;27709;52.036;5.906;2022-09-20T02:51:45;3.65;;;0.73;;
42030;SDS011;27709;52.036;5.906;2022-09-20T03:03:08;3.40;;;0.70;;
42030;SDS011;27709;52.036;5.906;2022-09-20T03:06:01;3.35;;;0.60;;
42030;SDS011;27709;52.036;5.906;2022-09-20T03:08:48;1.92;;;0.70;;
42030;SDS011;27709;52.036;5.906;2022-09-20T03:17:37;3.13;;;0.90;;
42030;SDS011;27709;52.036;5.906;2022-09-20T03:25:43;2.45;;;0.70;;
42030;SDS011;27709;52.036;5.906;2022-09-20T03:28:27;3.00;;;0.68;;
42030;SDS011;27709;52.036;5.906;2022-09-20T03:39:04;6.03;;;0.80;;
42030;SDS011;27709;52.036;5.906;2022-09-20T03:47:01;4.38;;;0.70;;
42030;SDS011;27709;52.036;5.906;2022-09-20T03:52:24;2.85;;;0.73;;
42030;SDS011;27709;52.036;5.906;2022-09-20T04:03:09;2.00;;;0.60;;
42030;SDS011;27709;52.036;5.906;2022-09-20T04:11:52;2.30;;;0.60;;
42030;SDS011;27709;52.036;5.906;2022-09-20T04:17:21;3.63;;;0.70;;
42030;SDS011;27709;52.036;5.906;2022-09-20T04:20:14;1.98;;;0.60;;
42030;SDS011;27709;52.036;5.906;2022-09-20T04:22:48;2.45;;;0.60;;
42030;SDS011;27709;52.036;5.906;2022-09-20T04:25:18;3.45;;;0.70;;
42030;SDS011;27709;52.036;5.906;2022-09-20T04:27:53;3.70;;;0.82;;
42030;SDS011;27709;52.036;5.906;2022-09-20T04:30:23;3.47;;;0.60;;
42030;SDS011;27709;52.036;5.906;2022-09-20T04:35:43;4.07;;;0.80;;
42030;SDS011;27709;52.036;5.906;2022-09-20T04:38:31;2.55;;;0.70;;
42030;SDS011;27709;52.036;5.906;2022-09-20T05:00:05;4.32;;;0.80;;
42030;SDS011;27709;52.036;5.906;2022-09-20T05:02:39;3.92;;;0.70;;
42030;SDS011;27709;52.036;5.906;2022-09-20T05:19:40;2.65;;;0.60;;
42030;SDS011;27709;52.036;5.906;2022-09-20T05:25:35;1.63;;;0.63;;
42030;SDS011;27709;52.036;5.906;2022-09-20T05:28:21;3.60;;;0.85;;
42030;SDS011;27709;52.036;5.906;2022-09-20T05:31:04;3.28;;;0.60;;
42030;SDS011;27709;52.036;5.906;2022-09-20T05:33:50;2.95;;;0.77;;
42030;SDS011;27709;52.036;5.906;2022-09-20T05:42:19;2.13;;;0.70;;
42030;SDS011;27709;52.036;5.906;2022-09-20T05:45:00;2.35;;;0.60;;
42030;SDS011;27709;52.036;5.906;2022-09-20T05:47:36;3.53;;;0.77;;
42030;SDS011;27709;52.036;5.906;2022-09-20T05:56:21;3.53;;;0.70;;
42030;SDS011;27709;52.036;5.906;2022-09-20T06:02:21;3.47;;;0.73;;
42030;SDS011;27709;52.036;5.906;2022-09-20T06:04:58;4.40;;;0.80;;
42030;SDS011;27709;52.036;5.906;2022-09-20T06:07:42;2.63;;;0.70;;
42030;SDS011;27709;52.036;5.906;2022-09-20T06:10:32;2.28;;;0.90;;
42030;SDS011;27709;52.036;5.906;2022-09-20T06:16:11;3.40;;;0.90;;
42030;SDS011;27709;52.036;5.906;2022-09-20T06:19:04;2.55;;;0.95;;
42030;SDS011;27709;52.036;5.906;2022-09-20T06:27:09;2.28;;;0.65;;
42030;SDS011;27709;52.036;5.906;2022-09-20T06:29:40;2.63;;;0.90;;
42030;SDS011;27709;52.036;5.906;2022-09-20T06:32:15;4.15;;;1.00;;
42030;SDS011;27709;52.036;5.906;2022-09-20T06:34:41;3.70;;;1.00;;
42030;SDS011;27709;52.036;5.906;2022-09-20T06:42:49;3.53;;;0.90;;
42030;SDS011;27709;52.036;5.906;2022-09-20T06:45:17;2.70;;;0.70;;
42030;SDS011;27709;52.036;5.906;2022-09-20T06:47:43;5.50;;;0.77;;
42030;SDS011;27709;52.036;5.906;2022-09-20T06:50:17;2.17;;;1.00;;
42030;SDS011;27709;52.036;5.906;2022-09-20T06:52:43;4.20;;;1.10;;
42030;SDS011;27709;52.036;5.906;2022-09-20T06:55:14;3.28;;;1.25;;
42030;SDS011;27709;52.036;5.906;2022-09-20T06:57:52;4.20;;;1.25;;
42030;SDS011;27709;52.036;5.906;2022-09-20T07:00:20;3.58;;;1.08;;
42030;SDS011;27709;52.036;5.906;2022-09-20T07:02:46;4.57;;;1.10;;
42030;SDS011;27709;52.036;5.906;2022-09-20T07:05:16;2.53;;;1.10;;
42030;SDS011;27709;52.036;5.906;2022-09-20T07:07:56;2.72;;;1.30;;
42030;SDS011;27709;52.036;5.906;2022-09-20T07:10:23;3.80;;;1.10;;
42030;SDS011;27709;52.036;5.906;2022-09-20T07:12:54;5.70;;;1.30;;
42030;SDS011;27709;52.036;5.906;2022-09-20T07:16:21;3.83;;;1.40;;
42030;SDS011;27709;52.036;5.906;2022-09-20T07:19:04;5.03;;;1.40;;
42030;SDS011;27709;52.036;5.906;2022-09-20T07:21:30;5.38;;;1.40;;
42030;SDS011;27709;52.036;5.906;2022-09-20T07:23:56;3.33;;;1.30;;
42030;SDS011;27709;52.036;5.906;2022-09-20T07:26:26;7.03;;;1.52;;
42030;SDS011;27709;52.036;5.906;2022-09-20T07:28:57;5.07;;;1.40;;
42030;SDS011;27709;52.036;5.906;2022-09-20T07:31:33;5.25;;;1.50;;
42030;SDS011;27709;52.036;5.906;2022-09-20T07:34:00;3.65;;;1.05;;
42030;SDS011;27709;52.036;5.906;2022-09-20T07:36:25;2.88;;;1.25;;
42030;SDS011;27709;52.036;5.906;2022-09-20T07:38:51;2.38;;;1.20;;
42030;SDS011;27709;52.036;5.906;2022-09-20T07:41:17;4.40;;;1.50;;
42030;SDS011;27709;52.036;5.906;2022-09-20T07:43:44;2.95;;;1.20;;
42030;SDS011;27709;52.036;5.906;2022-09-20T07:46:10;3.85;;;1.42;;
42030;SDS011;27709;52.036;5.906;2022-09-20T07:48:39;4.95;;;1.40;;
42030;SDS011;27709;52.036;5.906;2022-09-20T07:51:09;2.95;;;1.30;;
42030;SDS011;27709;52.036;5.906;2022-09-20T07:53:37;3.72;;;1.42;;
42030;SDS011;27709;52.036;5.906;2022-09-20T07:56:04;6.80;;;1.40;;
42030;SDS011;27709;52.036;5.906;2022-09-20T07:58:32;3.10;;;1.35;;
42030;SDS011;27709;52.036;5.906;2022-09-20T08:01:00;5.47;;;1.38;;
42030;SDS011;27709;52.036;5.906;2022-09-20T08:03:28;3.42;;;1.60;;
42030;SDS011;27709;52.036;5.906;2022-09-20T08:05:58;3.70;;;1.33;;
42030;SDS011;27709;52.036;5.906;2022-09-20T08:08:30;4.10;;;1.30;;
42030;SDS011;27709;52.036;5.906;2022-09-20T08:11:00;5.28;;;1.40;;
42030;SDS011;27709;52.036;5.906;2022-09-20T08:13:37;5.70;;;1.30;;
42030;SDS011;27709;52.036;5.906;2022-09-20T08:16:12;4.05;;;1.20;;
42030;SDS011;27709;52.036;5.906;2022-09-20T08:18:43;3.33;;;1.20;;
42030;SDS011;27709;52.036;5.906;2022-09-20T08:21:12;4.45;;;1.23;;
42030;SDS011;27709;52.036;5.906;2022-09-20T08:23:38;4.07;;;1.30;;
42030;SDS011;27709;52.036;5.906;2022-09-20T08:26:08;4.55;;;1.10;;
42030;SDS011;27709;52.036;5.906;2022-09-20T08:28:38;3.83;;;1.10;;
42030;SDS011;27709;52.036;5.906;2022-09-20T08:31:12;3.78;;;1.20;;
42030;SDS011;27709;52.036;5.906;2022-09-20T08:33:39;3.58;;;1.00;;
42030;SDS011;27709;52.036;5.906;2022-09-20T08:36:06;5.72;;;1.00;;
42030;SDS011;27709;52.036;5.906;2022-09-20T08:38:34;3.15;;;0.80;;
42030;SDS011;27709;52.036;5.906;2022-09-20T08:46:59;3.45;;;0.98;;
42030;SDS011;27709;52.036;5.906;2022-09-20T08:49:33;3.03;;;0.73;;
42030;SDS011;27709;52.036;5.906;2022-09-20T08:51:59;2.33;;;0.60;;
42030;SDS011;27709;52.036;5.906;2022-09-20T08:54:29;3.13;;;0.60;;
42030;SDS011;27709;52.036;5.906;2022-09-20T08:56:57;3.00;;;0.68;;
42030;SDS011;27709;52.036;5.906;2022-09-20T08:59:29;3.08;;;0.60;;
42030;SDS011;27709;52.036;5.906;2022-09-20T09:01:56;2.58;;;0.60;;
42030;SDS011;27709;52.036;5.906;2022-09-20T09:04:33;2.15;;;0.60;;
42030;SDS011;27709;52.036;5.906;2022-09-20T09:07:00;3.72;;;0.50;;
42030;SDS011;27709;52.036;5.906;2022-09-20T09:09:27;2.67;;;0.50;;
42030;SDS011;27709;52.036;5.906;2022-09-20T09:11:54;2.50;;;0.52;;
42030;SDS011;27709;52.036;5.906;2022-09-20T09:14:25;2.90;;;0.50;;
42030;SDS011;27709;52.036;5.906;2022-09-20T09:17:17;2.00;;;0.50;;
42030;SDS011;27709;52.036;5.906;2022-09-20T09:19:48;2.83;;;0.50;;
42030;SDS011;27709;52.036;5.906;2022-09-20T09:22:23;3.83;;;0.50;;
42030;SDS011;27709;52.036;5.906;2022-09-20T09:30:35;3.08;;;0.40;;
42030;SDS011;27709;52.036;5.906;2022-09-20T09:33:15;3.47;;;0.40;;
42030;SDS011;27709;52.036;5.906;2022-09-20T09:35:55;3.90;;;0.50;;
42030;SDS011;27709;52.036;5.906;2022-09-20T09:38:30;4.05;;;0.60;;
42030;SDS011;27709;52.036;5.906;2022-09-20T09:40:59;2.50;;;0.55;;
42030;SDS011;27709;52.036;5.906;2022-09-20T09:43:30;4.05;;;0.60;;
42030;SDS011;27709;52.036;5.906;2022-09-20T09:49:02;4.78;;;0.57;;
42030;SDS011;27709;52.036;5.906;2022-09-20T09:51:29;3.25;;;0.50;;
42030;SDS011;27709;52.036;5.906;2022-09-20T09:53:56;3.65;;;0.60;;
42030;SDS011;27709;52.036;5.906;2022-09-20T10:00:11;2.72;;;0.50;;
42030;SDS011;27709;52.036;5.906;2022-09-20T10:08:09;3.92;;;0.60;;
42030;SDS011;27709;52.036;5.906;2022-09-20T10:28:12;2.50;;;0.30;;
42030;SDS011;27709;52.036;5.906;2022-09-20T10:36:56;2.63;;;0.30;;
42030;SDS011;27709;52.036;5.906;2022-09-20T10:39:25;1.33;;;0.20;;
42030;SDS011;27709;52.036;5.906;2022-09-20T10:47:31;1.92;;;0.30;;
42030;SDS011;27709;52.036;5.906;2022-09-20T10:50:19;1.30;;;0.32;;
42030;SDS011;27709;52.036;5.906;2022-09-20T11:07:08;2.03;;;0.50;;
42030;SDS011;27709;52.036;5.906;2022-09-20T11:09:46;2.42;;;0.32;;
42030;SDS011;27709;52.036;5.906;2022-09-20T11:12:22;2.28;;;0.40;;
42030;SDS011;27709;52.036;5.906;2022-09-20T11:15:25;3.03;;;0.30;;
42030;SDS011;27709;52.036;5.906;2022-09-20T11:21:09;3.78;;;0.60;;
42030;SDS011;27709;52.036;5.906;2022-09-20T11:28:58;4.03;;;0.43;;
42030;SDS011;27709;52.036;5.906;2022-09-20T11:31:35;2.38;;;0.35;;
42030;SDS011;27709;52.036;5.906;2022-09-20T11:34:49;3.22;;;0.50;;
42030;SDS011;27709;52.036;5.906;2022-09-20T11:36:59;2.85;;;0.30;;
42030;SDS011;27709;52.036;5.906;2022-09-20T11:39:29;4.18;;;0.45;;
42030;SDS011;27709;52.036;5.906;2022-09-20T11:42:03;2.85;;;0.35;;
42030;SDS011;27709;52.036;5.906;2022-09-20T11:44:30;2.80;;;0.32;;
42030;SDS011;27709;52.036;5.906;2022-09-20T11:49:29;2.38;;;0.35;;
42030;SDS011;27709;52.036;5.906;2022-09-20T11:57:39;3.85;;;0.60;;
42030;SDS011;27709;52.036;5.906;2022-09-20T12:00:05;2.88;;;0.30;;
42030;SDS011;27709;52.036;5.906;2022-09-20T12:02:34;2.92;;;0.55;;
42030;SDS011;27709;52.036;5.906;2022-09-20T12:05:06;2.65;;;0.40;;
42030;SDS011;27709;52.036;5.906;2022-09-20T12:10:23;2.53;;;0.38;;
42030;SDS011;27709;52.036;5.906;2022-09-20T12:13:02;2.15;;;0.40;;
42030;SDS011;27709;52.036;5.906;2022-09-20T12:15:36;4.25;;;0.30;;
42030;SDS011;27709;52.036;5.906;2022-09-20T12:26:06;1.52;;;0.22;;
42030;SDS011;27709;52.036;5.906;2022-09-20T12:28:38;1.92;;;0.30;;
42030;SDS011;27709;52.036;5.906;2022-09-20T12:33:55;2.95;;;0.30;;
42030;SDS011;27709;52.036;5.906;2022-09-20T12:36:21;1.55;;;0.30;;
42030;SDS011;27709;52.036;5.906;2022-09-20T12:38:51;3.47;;;0.45;;
42030;SDS011;27709;52.036;5.906;2022-09-20T12:41:47;1.90;;;0.20;;
42030;SDS011;27709;52.036;5.906;2022-09-20T12:44:56;2.65;;;0.38;;
42030;SDS011;27709;52.036;5.906;2022-09-20T12:47:28;2.67;;;0.50;;
42030;SDS011;27709;52.036;5.906;2022-09-20T12:50:17;2.00;;;0.40;;
42030;SDS011;27709;52.036;5.906;2022-09-20T12:53:03;4.65;;;0.40;;
42030;SDS011;27709;52.036;5.906;2022-09-20T12:58:23;2.22;;;0.30;;
42030;SDS011;27709;52.036;5.906;2022-09-20T13:03:32;1.75;;;0.22;;
42030;SDS011;27709;52.036;5.906;2022-09-20T13:11:22;2.08;;;0.30;;
42030;SDS011;27709;52.036;5.906;2022-09-20T13:14:29;2.50;;;0.40;;
42030;SDS011;27709;52.036;5.906;2022-09-20T13:17:17;3.90;;;0.40;;
42030;SDS011;27709;52.036;5.906;2022-09-20T13:19:48;3.15;;;0.50;;
42030;SDS011;27709;52.036;5.906;2022-09-20T13:25:02;2.17;;;0.30;;
42030;SDS011;27709;52.036;5.906;2022-09-20T13:27:30;3.95;;;0.20;;
42030;SDS011;27709;52.036;5.906;2022-09-20T13:32:50;1.50;;;0.20;;
42030;SDS011;27709;52.036;5.906;2022-09-20T13:35:17;2.03;;;0.38;;
42030;SDS011;27709;52.036;5.906;2022-09-20T13:37:58;2.35;;;0.30;;
42030;SDS011;27709;52.036;5.906;2022-09-20T13:43:03;3.70;;;0.40;;
42030;SDS011;27709;52.036;5.906;2022-09-20T13:45:30;3.42;;;0.38;;
42030;SDS011;27709;52.036;5.906;2022-09-20T13:47:57;2.42;;;0.20;;
42030;SDS011;27709;52.036;5.906;2022-09-20T13:52:58;2.00;;;0.30;;
42030;SDS011;27709;52.036;5.906;2022-09-20T13:55:33;2.38;;;0.38;;
42030;SDS011;27709;52.036;5.906;2022-09-20T13:58:02;2.72;;;0.40;;
42030;SDS011;27709;52.036;5.906;2022-09-20T14:00:34;1.58;;;0.32;;
42030;SDS011;27709;52.036;5.906;2022-09-20T14:03:01;2.97;;;0.40;;
42030;SDS011;27709;52.036;5.906;2022-09-20T14:05:28;3.22;;;0.40;;
42030;SDS011;27709;52.036;5.906;2022-09-20T14:07:55;4.03;;;0.40;;
42030;SDS011;27709;52.036;5.906;2022-09-20T14:10:27;2.75;;;0.40;;
42030;SDS011;27709;52.036;5.906;2022-09-20T14:13:02;4.82;;;0.40;;
42030;SDS011;27709;52.036;5.906;2022-09-20T14:15:35;1.42;;;0.30;;
42030;SDS011;27709;52.036;5.906;2022-09-20T14:18:04;1.75;;;0.30;;
42030;SDS011;27709;52.036;5.906;2022-09-20T14:20:31;4.10;;;0.40;;
42030;SDS011;27709;52.036;5.906;2022-09-20T14:22:58;2.92;;;0.35;;
42030;SDS011;27709;52.036;5.906;2022-09-20T14:25:24;3.40;;;0.40;;
42030;SDS011;27709;52.036;5.906;2022-09-20T14:30:42;3.28;;;0.40;;
42030;SDS011;27709;52.036;5.906;2022-09-20T14:33:14;1.20;;;0.20;;
42030;SDS011;27709;52.036;5.906;2022-09-20T14:35:47;2.15;;;0.40;;
42030;SDS011;27709;52.036;5.906;2022-09-20T14:38:14;2.40;;;0.30;;
42030;SDS011;27709;52.036;5.906;2022-09-20T14:40:46;3.00;;;0.50;;
42030;SDS011;27709;52.036;5.906;2022-09-20T14:43:23;2.45;;;0.30;;
42030;SDS011;27709;52.036;5.906;2022-09-20T14:46:03;2.10;;;0.20;;
42030;SDS011;27709;52.036;5.906;2022-09-20T14:48:33;1.83;;;0.30;;
42030;SDS011;27709;52.036;5.906;2022-09-20T14:51:08;2.97;;;0.30;;
42030;SDS011;27709;52.036;5.906;2022-09-20T14:53:40;4.00;;;0.40;;
42030;SDS011;27709;52.036;5.906;2022-09-20T14:56:08;1.38;;;0.30;;
42030;SDS011;27709;52.036;5.906;2022-09-20T15:01:36;3.05;;;0.32;;
42030;SDS011;27709;52.036;5.906;2022-09-20T15:04:06;2.92;;;0.30;;
42030;SDS011;27709;52.036;5.906;2022-09-20T15:06:36;1.63;;;0.30;;
42030;SDS011;27709;52.036;5.906;2022-09-20T15:09:04;2.03;;;0.40;;
42030;SDS011;27709;52.036;5.906;2022-09-20T15:11:29;2.15;;;0.30;;
42030;SDS011;27709;52.036;5.906;2022-09-20T15:13:55;2.20;;;0.20;;
42030;SDS011;27709;52.036;5.906;2022-09-20T15:16:21;0.70;;;0.15;;
42030;SDS011;27709;52.036;5.906;2022-09-20T15:18:47;2.55;;;0.30;;
42030;SDS011;27709;52.036;5.906;2022-09-20T15:21:14;1.27;;;0.40;;
42030;SDS011;27709;52.036;5.906;2022-09-20T15:23:39;3.60;;;0.30;;
42030;SDS011;27709;52.036;5.906;2022-09-20T15:26:06;1.38;;;0.20;;
42030;SDS011;27709;52.036;5.906;2022-09-20T15:28:40;1.55;;;0.30;;
42030;SDS011;27709;52.036;5.906;2022-09-20T15:31:06;2.45;;;0.40;;
42030;SDS011;27709;52.036;5.906;2022-09-20T15:33:31;2.80;;;0.30;;
42030;SDS011;27709;52.036;5.906;2022-09-20T15:35:57;3.45;;;0.40;;
42030;SDS011;27709;52.036;5.906;2022-09-20T15:38:25;2.30;;;0.28;;
42030;SDS011;27709;52.036;5.906;2022-09-20T15:40:53;1.65;;;0.22;;
42030;SDS011;27709;52.036;5.906;2022-09-20T15:43:19;3.45;;;0.40;;
42030;SDS011;27709;52.036;5.906;2022-09-20T15:45:55;2.50;;;0.22;;
42030;SDS011;27709;52.036;5.906;2022-09-20T15:48:24;3.20;;;0.30;;
42030;SDS011;27709;52.036;5.906;2022-09-20T15:53:34;1.23;;;0.20;;
42030;SDS011;27709;52.036;5.906;2022-09-20T15:56:06;5.20;;;0.30;;
42030;SDS011;27709;52.036;5.906;2022-09-20T15:58:45;2.45;;;0.30;;
42030;SDS011;27709;52.036;5.906;2022-09-20T16:01:13;1.42;;;0.20;;
42030;SDS011;27709;52.036;5.906;2022-09-20T16:03:42;1.20;;;0.20;;
42030;SDS011;27709;52.036;5.906;2022-09-20T16:06:12;1.50;;;0.30;;
42030;SDS011;27709;52.036;5.906;2022-09-20T16:08:39;3.50;;;0.20;;
42030;SDS011;27709;52.036;5.906;2022-09-20T16:11:06;1.55;;;0.20;;
42030;SDS011;27709;52.036;5.906;2022-09-20T16:13:33;1.98;;;0.40;;
42030;SDS011;27709;52.036;5.906;2022-09-20T16:16:03;1.45;;;0.40;;
42030;SDS011;27709;52.036;5.906;2022-09-20T16:18:30;4.18;;;0.70;;
42030;SDS011;27709;52.036;5.906;2022-09-20T16:21:16;5.70;;;1.30;;
42030;SDS011;27709;52.036;5.906;2022-09-20T16:23:48;3.80;;;1.23;;
42030;SDS011;27709;52.036;5.906;2022-09-20T16:26:16;4.68;;;1.33;;
42030;SDS011;27709;52.036;5.906;2022-09-20T16:28:43;4.50;;;1.20;;
42030;SDS011;27709;52.036;5.906;2022-09-20T16:34:03;5.35;;;0.50;;
42030;SDS011;27709;52.036;5.906;2022-09-20T16:36:41;4.38;;;0.40;;
42030;SDS011;27709;52.036;5.906;2022-09-20T16:39:10;1.30;;;0.28;;
42030;SDS011;27709;52.036;5.906;2022-09-20T16:41:37;1.58;;;0.30;;
42030;SDS011;27709;52.036;5.906;2022-09-20T16:44:03;2.08;;;0.35;;
42030;SDS011;27709;52.036;5.906;2022-09-20T16:46:29;3.33;;;0.40;;
42030;SDS011;27709;52.036;5.906;2022-09-20T16:49:01;3.45;;;0.40;;
42030;SDS011;27709;52.036;5.906;2022-09-20T16:51:29;2.42;;;0.80;;
42030;SDS011;27709;52.036;5.906;2022-09-20T16:53:57;3.92;;;0.90;;
42030;SDS011;27709;52.036;5.906;2022-09-20T16:56:27;3.88;;;0.50;;
42030;SDS011;27709;52.036;5.906;2022-09-20T16:58:54;2.10;;;0.40;;
42030;SDS011;27709;52.036;5.906;2022-09-20T17:01:20;1.23;;;0.30;;
42030;SDS011;27709;52.036;5.906;2022-09-20T17:03:47;1.50;;;0.22;;
42030;SDS011;27709;52.036;5.906;2022-09-20T17:06:14;1.90;;;0.30;;
42030;SDS011;27709;52.036;5.906;2022-09-20T17:08:43;2.00;;;0.20;;
42030;SDS011;27709;52.036;5.906;2022-09-20T17:11:13;1.95;;;0.30;;
42030;SDS011;27709;52.036;5.906;2022-09-20T17:13:42;1.58;;;0.25;;
42030;SDS011;27709;52.036;5.906;2022-09-20T17:16:10;1.65;;;0.20;;
42030;SDS011;27709;52.036;5.906;2022-09-20T17:18:37;1.92;;;0.25;;
42030;SDS011;27709;52.036;5.906;2022-09-20T17:21:06;2.67;;;0.20;;
42030;SDS011;27709;52.036;5.906;2022-09-20T17:23:35;2.63;;;0.38;;
42030;SDS011;27709;52.036;5.906;2022-09-20T17:26:04;0.88;;;0.30;;
42030;SDS011;27709;52.036;5.906;2022-09-20T17:28:39;2.42;;;0.30;;
42030;SDS011;27709;52.036;5.906;2022-09-20T17:31:09;1.05;;;0.20;;
42030;SDS011;27709;52.036;5.906;2022-09-20T17:33:36;1.25;;;0.28;;
42030;SDS011;27709;52.036;5.906;2022-09-20T17:36:06;1.75;;;0.30;;
42030;SDS011;27709;52.036;5.906;2022-09-20T17:38:36;2.58;;;0.30;;
42030;SDS011;27709;52.036;5.906;2022-09-20T17:41:04;1.75;;;0.30;;
42030;SDS011;27709;52.036;5.906;2022-09-20T17:43:35;1.73;;;0.20;;
42030;SDS011;27709;52.036;5.906;2022-09-20T17:46:05;2.33;;;0.40;;
42030;SDS011;27709;52.036;5.906;2022-09-20T17:48:34;0.45;;;0.20;;
42030;SDS011;27709;52.036;5.906;2022-09-20T17:51:12;0.40;;;0.10;;
42030;SDS011;27709;52.036;5.906;2022-09-20T17:53:40;2.38;;;0.30;;
42030;SDS011;27709;52.036;5.906;2022-09-20T17:56:07;3.10;;;0.47;;
42030;SDS011;27709;52.036;5.906;2022-09-20T17:58:40;1.60;;;0.40;;
42030;SDS011;27709;52.036;5.906;2022-09-20T18:01:10;1.52;;;0.40;;
42030;SDS011;27709;52.036;5.906;2022-09-20T18:03:39;2.03;;;0.50;;
42030;SDS011;27709;52.036;5.906;2022-09-20T18:06:12;2.63;;;0.45;;
42030;SDS011;27709;52.036;5.906;2022-09-20T18:08:41;2.88;;;0.43;;
42030;SDS011;27709;52.036;5.906;2022-09-20T18:11:11;1.90;;;0.40;;
42030;SDS011;27709;52.036;5.906;2022-09-20T18:13:37;3.53;;;0.40;;
42030;SDS011;27709;52.036;5.906;2022-09-20T18:16:06;3.08;;;0.40;;
42030;SDS011;27709;52.036;5.906;2022-09-20T18:18:34;2.92;;;0.40;;
42030;SDS011;27709;52.036;5.906;2022-09-20T18:21:09;1.58;;;0.35;;
42030;SDS011;27709;52.036;5.906;2022-09-20T18:23:35;2.38;;;0.35;;
42030;SDS011;27709;52.036;5.906;2022-09-20T18:26:05;2.63;;;0.35;;
42030;SDS011;27709;52.036;5.906;2022-09-20T18:28:53;3.22;;;0.50;;
42030;SDS011;27709;52.036;5.906;2022-09-20T18:31:26;1.02;;;0.30;;
42030;SDS011;27709;52.036;5.906;2022-09-20T18:33:56;2.20;;;0.40;;
42030;SDS011;27709;52.036;5.906;2022-09-20T18:36:23;1.50;;;0.20;;
42030;SDS011;27709;52.036;5.906;2022-09-20T18:38:50;1.60;;;0.38;;
42030;SDS011;27709;52.036;5.906;2022-09-20T18:41:23;2.05;;;0.30;;
42030;SDS011;27709;52.036;5.906;2022-09-20T18:43:54;2.10;;;0.30;;
42030;SDS011;27709;52.036;5.906;2022-09-20T18:46:20;1.70;;;0.30;;
42030;SDS011;27709;52.036;5.906;2022-09-20T18:48:54;0.77;;;0.30;;
42030;SDS011;27709;52.036;5.906;2022-09-20T18:51:25;3.25;;;0.30;;
42030;SDS011;27709;52.036;5.906;2022-09-20T18:53:54;2.67;;;0.40;;
42030;SDS011;27709;52.036;5.906;2022-09-20T18:58:50;2.63;;;0.47;;
42030;SDS011;27709;52.036;5.906;2022-09-20T19:03:56;3.20;;;0.30;;
42030;SDS011;27709;52.036;5.906;2022-09-20T19:06:30;1.35;;;0.20;;
42030;SDS011;27709;52.036;5.906;2022-09-20T19:09:20;2.70;;;0.40;;
42030;SDS011;27709;52.036;5.906;2022-09-20T19:12:00;3.85;;;0.30;;
42030;SDS011;27709;52.036;5.906;2022-09-20T19:14:36;4.18;;;0.30;;
42030;SDS011;27709;52.036;5.906;2022-09-20T19:17:07;2.08;;;0.43;;
42030;SDS011;27709;52.036;5.906;2022-09-20T19:19:40;2.38;;;0.38;;
42030;SDS011;27709;52.036;5.906;2022-09-20T19:22:30;4.80;;;0.40;;
42030;SDS011;27709;52.036;5.906;2022-09-20T19:25:11;2.33;;;0.60;;
42030;SDS011;27709;52.036;5.906;2022-09-20T19:27:48;2.60;;;0.20;;
42030;SDS011;27709;52.036;5.906;2022-09-20T19:30:14;2.10;;;0.47;;
42030;SDS011;27709;52.036;5.906;2022-09-20T19:32:41;2.08;;;0.20;;
42030;SDS011;27709;52.036;5.906;2022-09-20T19:35:13;3.03;;;0.35;;
42030;SDS011;27709;52.036;5.906;2022-09-20T19:38:28;0.68;;;0.20;;
42030;SDS011;27709;52.036;5.906;2022-09-20T19:43:42;3.70;;;0.30;;
42030;SDS011;27709;52.036;5.906;2022-09-20T19:51:57;2.17;;;0.32;;
42030;SDS011;27709;52.036;5.906;2022-09-20T19:54:23;2.25;;;0.40;;
42030;SDS011;27709;52.036;5.906;2022-09-20T19:56:55;1.85;;;0.40;;
42030;SDS011;27709;52.036;5.906;2022-09-20T19:59:24;1.65;;;0.40;;
42030;SDS011;27709;52.036;5.906;2022-09-20T20:01:51;2.60;;;0.50;;
42030;SDS011;27709;52.036;5.906;2022-09-20T20:04:17;2.05;;;0.40;;
42030;SDS011;27709;52.036;5.906;2022-09-20T20:06:53;1.35;;;0.30;;
42030;SDS011;27709;52.036;5.906;2022-09-20T20:09:40;1.50;;;0.40;;
42030;SDS011;27709;52.036;5.906;2022-09-20T20:12:13;2.92;;;0.30;;
42030;SDS011;27709;52.036;5.906;2022-09-20T20:18:09;1.08;;;0.30;;
42030;SDS011;27709;52.036;5.906;2022-09-20T20:20:46;1.55;;;0.30;;
42030;SDS011;27709;52.036;5.906;2022-09-20T20:26:18;1.70;;;0.40;;
42030;SDS011;27709;52.036;5.906;2022-09-20T20:28:47;2.00;;;0.30;;
42030;SDS011;27709;52.036;5.906;2022-09-20T20:31:14;2.38;;;0.40;;
42030;SDS011;27709;52.036;5.906;2022-09-20T20:33:40;1.88;;;0.30;;
42030;SDS011;27709;52.036;5.906;2022-09-20T20:36:05;4.20;;;0.50;;
42030;SDS011;27709;52.036;5.906;2022-09-20T20:38:33;2.00;;;0.40;;
42030;SDS011;27709;52.036;5.906;2022-09-20T20:41:05;1.25;;;0.30;;
42030;SDS011;27709;52.036;5.906;2022-09-20T20:43:33;2.80;;;0.40;;
42030;SDS011;27709;52.036;5.906;2022-09-20T20:46:02;4.25;;;0.50;;
42030;SDS011;27709;52.036;5.906;2022-09-20T20:48:29;2.10;;;0.50;;
42030;SDS011;27709;52.036;5.906;2022-09-20T20:50:59;1.77;;;0.30;;